Time;durP1;ratioP1;P1;durP2;ratioP2;P2;SDS_P1;SDS_P2;PMS_P1;PMS_P2;Temp;Humidity;BMP_temperature;BMP_pressure;BME280_temperature;BME280_humidity;BME280_pressure;Samples;Min_cycle;Max_cycle;Signal;HPM_P1;HPM_P2
2021/11/11 00:02:00;;;;;;;22.00;16.13;;;3.80;99.90;;;;;;5022326;28;20209;-81
2021/11/11 00:04:27;;;;;;;23.35;19.90;;;3.80;99.90;;;;;;5019272;28;20234;-80
2021/11/11 00:06:59;;;;;;;29.10;22.40;;;3.70;99.90;;;;;;5030336;28;20199;-81
2021/11/11 00:09:26;;;;;;;22.15;18.48;;;3.60;99.90;;;;;;5020165;28;20672;-81
2021/11/11 00:11:53;;;;;;;30.75;21.23;;;3.60;99.90;;;;;;5039341;28;20204;-79
2021/11/11 00:14:20;;;;;;;22.55;18.60;;;3.70;99.90;;;;;;5039172;28;20212;-79
2021/11/11 00:16:47;;;;;;;22.20;18.33;;;3.70;99.90;;;;;;5020362;28;20206;-81
2021/11/11 00:19:15;;;;;;;24.67;17.95;;;3.70;99.90;;;;;;5019553;28;20718;-81
2021/11/11 00:21:42;;;;;;;29.38;20.17;;;3.60;99.90;;;;;;5038003;28;20198;-81
2021/11/11 00:24:09;;;;;;;25.17;17.98;;;3.50;99.90;;;;;;5039175;28;20208;-81
2021/11/11 00:26:36;;;;;;;23.88;17.83;;;3.60;99.90;;;;;;5021856;28;20693;-81
2021/11/11 00:29:03;;;;;;;22.70;18.60;;;3.60;99.90;;;;;;5035176;28;20675;-82
2021/11/11 00:31:30;;;;;;;23.65;18.23;;;3.60;99.90;;;;;;5024651;28;20663;-81
2021/11/11 00:33:57;;;;;;;24.58;19.15;;;3.60;99.90;;;;;;5023903;28;20212;-81
2021/11/11 00:36:25;;;;;;;28.48;19.83;;;3.60;99.90;;;;;;5019632;28;20259;-80
2021/11/11 00:38:52;;;;;;;21.63;16.48;;;3.50;99.90;;;;;;5031657;28;20223;-81
2021/11/11 00:41:19;;;;;;;22.30;18.75;;;3.60;99.90;;;;;;5002341;28;20214;-80
2021/11/11 00:43:46;;;;;;;20.58;17.13;;;3.60;99.90;;;;;;5037494;28;20208;-80
2021/11/11 00:46:13;;;;;;;22.67;16.08;;;3.60;99.90;;;;;;5047044;28;20228;-81
2021/11/11 00:48:40;;;;;;;19.80;16.90;;;3.60;99.90;;;;;;5020802;28;20210;-81
2021/11/11 00:51:07;;;;;;;24.77;19.00;;;3.40;99.90;;;;;;5028828;28;20209;-81
2021/11/11 00:53:35;;;;;;;25.85;18.55;;;3.10;99.90;;;;;;5038763;28;20209;-82
2021/11/11 00:56:02;;;;;;;23.70;20.63;;;3.00;99.90;;;;;;5038288;28;20227;-81
2021/11/11 00:58:29;;;;;;;21.30;19.02;;;2.90;99.90;;;;;;5038176;28;20207;-81
2021/11/11 01:00:56;;;;;;;22.30;19.90;;;2.70;99.90;;;;;;5037045;28;20205;-81
2021/11/11 01:03:30;;;;;;;21.40;17.92;;;2.80;99.90;;;;;;5039144;28;20579;-81
2021/11/11 01:05:56;;;;;;;23.42;18.23;;;3.00;99.90;;;;;;5039170;28;20258;-80
2021/11/11 01:08:23;;;;;;;26.40;18.35;;;3.10;99.90;;;;;;5023669;28;20205;-81
2021/11/11 01:10:51;;;;;;;22.35;17.50;;;3.10;99.90;;;;;;5028752;28;20560;-81
2021/11/11 01:13:18;;;;;;;29.35;18.20;;;3.20;99.90;;;;;;5038385;28;20211;-81
2021/11/11 01:15:45;;;;;;;27.25;17.92;;;3.20;99.90;;;;;;5033433;28;20229;-81
2021/11/11 01:18:11;;;;;;;23.50;17.42;;;3.20;99.90;;;;;;5018391;28;20219;-81
2021/11/11 01:20:38;;;;;;;21.15;16.98;;;3.20;99.90;;;;;;5020624;28;20239;-82
2021/11/11 01:23:05;;;;;;;22.42;17.40;;;3.20;99.90;;;;;;5035744;28;20200;-80
2021/11/11 01:25:37;;;;;;;22.45;19.48;;;3.20;99.90;;;;;;5038074;28;20234;-82
2021/11/11 01:28:05;;;;;;;21.17;16.75;;;3.20;99.90;;;;;;5031029;28;20612;-81
2021/11/11 01:30:32;;;;;;;21.52;18.13;;;3.20;99.90;;;;;;5018852;28;20217;-81
2021/11/11 01:32:59;;;;;;;24.95;18.60;;;3.00;99.90;;;;;;5017693;28;20616;-81
2021/11/11 01:35:26;;;;;;;22.10;19.20;;;3.00;99.90;;;;;;5018147;28;20234;-81
2021/11/11 01:37:53;;;;;;;23.80;17.38;;;3.00;99.90;;;;;;5017854;28;20207;-82
2021/11/11 01:40:20;;;;;;;21.70;18.13;;;3.00;99.90;;;;;;5017828;28;20225;-81
2021/11/11 01:42:50;;;;;;;23.27;17.58;;;3.00;99.90;;;;;;5017445;28;20232;-81
2021/11/11 01:45:23;;;;;;;23.77;19.52;;;2.90;99.90;;;;;;5018202;28;20217;-82
2021/11/11 01:47:50;;;;;;;22.67;19.20;;;2.90;99.90;;;;;;5018402;28;20213;-81
2021/11/11 01:50:16;;;;;;;21.27;18.98;;;2.90;99.90;;;;;;5017961;28;20220;-82
2021/11/11 01:52:43;;;;;;;24.08;18.65;;;2.80;99.90;;;;;;5017754;28;20209;-82
2021/11/11 01:55:10;;;;;;;28.98;19.58;;;2.60;99.90;;;;;;5018302;28;20229;-81
2021/11/11 01:57:37;;;;;;;22.77;19.52;;;2.70;99.90;;;;;;5018178;28;20208;-81
2021/11/11 02:00:07;;;;;;;21.25;18.90;;;2.80;99.90;;;;;;5017688;28;20704;-81
2021/11/11 02:02:35;;;;;;;20.45;17.65;;;2.90;99.90;;;;;;5017991;28;20221;-80
2021/11/11 02:05:02;;;;;;;26.13;18.50;;;2.90;99.90;;;;;;5017938;28;20234;-81
2021/11/11 02:07:29;;;;;;;21.20;16.15;;;3.00;99.90;;;;;;5017795;28;20216;-82
2021/11/11 02:09:56;;;;;;;25.02;17.08;;;3.00;99.90;;;;;;5018029;28;20204;-80
2021/11/11 02:12:22;;;;;;;19.73;15.52;;;3.00;99.90;;;;;;5017719;28;20211;-82
2021/11/11 02:14:50;;;;;;;21.90;19.02;;;3.00;99.90;;;;;;5017384;28;20243;-81
2021/11/11 02:17:26;;;;;;;23.02;18.90;;;3.00;99.90;;;;;;5018133;28;20198;-82
2021/11/11 02:20:01;;;;;;;24.88;17.27;;;3.00;99.90;;;;;;5017757;28;20263;-81
2021/11/11 02:22:28;;;;;;;25.23;16.27;;;3.00;99.90;;;;;;5018258;28;20206;-81
2021/11/11 02:24:55;;;;;;;23.90;16.75;;;3.10;99.90;;;;;;5017362;28;20225;-82
2021/11/11 02:27:21;;;;;;;22.48;15.55;;;3.10;99.90;;;;;;5017973;28;20219;-81
2021/11/11 02:29:48;;;;;;;20.02;16.05;;;3.10;99.90;;;;;;5017728;28;20480;-81
2021/11/11 02:32:15;;;;;;;17.40;15.25;;;3.10;99.90;;;;;;5021617;28;20220;-80
2021/11/11 02:34:42;;;;;;;22.08;17.02;;;3.10;99.90;;;;;;5021773;28;20235;-82
2021/11/11 02:37:11;;;;;;;19.52;16.20;;;3.10;99.90;;;;;;5021269;28;20212;-80
2021/11/11 02:39:39;;;;;;;19.83;16.33;;;3.10;99.90;;;;;;5026623;28;20230;-81
2021/11/11 02:42:06;;;;;;;19.08;16.75;;;3.10;99.90;;;;;;5032735;28;20208;-80
2021/11/11 02:44:34;;;;;;;21.90;16.08;;;3.10;99.90;;;;;;5023293;28;20262;-80
2021/11/11 02:47:01;;;;;;;19.27;15.00;;;3.00;99.90;;;;;;5022340;28;20223;-82
2021/11/11 02:49:32;;;;;;;22.50;17.25;;;3.00;99.90;;;;;;5027281;28;20208;-81
2021/11/11 02:51:59;;;;;;;17.05;14.88;;;3.00;99.90;;;;;;5026977;28;20213;-80
2021/11/11 02:54:27;;;;;;;20.60;14.90;;;3.00;99.90;;;;;;5026338;28;20238;-81
2021/11/11 02:56:54;;;;;;;19.48;15.40;;;3.00;99.90;;;;;;5028093;28;20216;-81
2021/11/11 02:59:21;;;;;;;18.83;15.20;;;3.00;99.90;;;;;;5027334;28;20712;-81
2021/11/11 03:01:48;;;;;;;20.70;17.25;;;3.00;99.90;;;;;;5025059;28;20202;-81
2021/11/11 03:04:14;;;;;;;18.95;16.27;;;3.00;99.90;;;;;;5024644;28;20211;-81
2021/11/11 03:06:41;;;;;;;19.75;16.48;;;2.90;99.90;;;;;;5024617;28;20203;-81
2021/11/11 03:09:08;;;;;;;22.20;16.17;;;2.90;99.90;;;;;;5024149;28;20216;-81
2021/11/11 03:11:37;;;;;;;19.85;16.13;;;2.90;99.90;;;;;;5024151;28;20219;-81
2021/11/11 03:14:04;;;;;;;21.42;17.00;;;2.80;99.90;;;;;;5024784;28;20209;-80
2021/11/11 03:16:30;;;;;;;19.38;16.40;;;2.90;99.90;;;;;;5023871;28;20217;-81
2021/11/11 03:18:57;;;;;;;17.52;15.57;;;2.90;99.90;;;;;;5025051;28;20210;-80
2021/11/11 03:21:24;;;;;;;21.05;16.83;;;2.90;99.90;;;;;;5024287;28;20233;-80
2021/11/11 03:23:51;;;;;;;20.88;16.05;;;2.90;99.90;;;;;;5024323;28;20207;-81
2021/11/11 03:26:19;;;;;;;22.15;16.08;;;2.90;99.90;;;;;;5024345;28;20231;-81
2021/11/11 03:28:48;;;;;;;23.00;17.13;;;2.90;99.90;;;;;;5020793;28;20238;-80
2021/11/11 03:31:14;;;;;;;21.25;17.88;;;2.90;99.90;;;;;;5018647;28;20220;-80
2021/11/11 03:33:41;;;;;;;22.80;19.13;;;2.90;99.90;;;;;;5019177;28;20701;-80
2021/11/11 03:36:08;;;;;;;22.30;18.25;;;2.90;99.90;;;;;;5019254;28;20254;-80
2021/11/11 03:38:34;;;;;;;19.08;17.20;;;2.90;99.90;;;;;;5018648;28;20211;-80
2021/11/11 03:41:01;;;;;;;24.40;18.17;;;2.80;99.90;;;;;;5022695;28;20226;-79
2021/11/11 03:43:28;;;;;;;20.15;17.95;;;2.80;99.90;;;;;;5023955;28;20684;-80
2021/11/11 03:45:56;;;;;;;25.30;19.85;;;2.80;99.90;;;;;;5022659;28;20230;-80
2021/11/11 03:48:23;;;;;;;23.55;18.20;;;2.80;99.90;;;;;;5019451;28;20220;-80
2021/11/11 03:50:50;;;;;;;29.80;22.88;;;2.80;99.90;;;;;;5018964;28;20208;-80
2021/11/11 03:53:17;;;;;;;29.17;24.48;;;2.70;99.90;;;;;;5023906;28;20308;-80
2021/11/11 03:55:44;;;;;;;27.27;22.15;;;2.70;99.90;;;;;;5023177;28;20234;-80
2021/11/11 03:58:15;;;;;;;30.00;23.08;;;2.70;99.90;;;;;;5020090;28;20247;-80
2021/11/11 04:00:42;;;;;;;28.60;21.63;;;2.70;99.90;;;;;;5018848;28;20281;-81
2021/11/11 04:03:10;;;;;;;25.02;19.95;;;2.70;99.90;;;;;;5020313;28;20213;-80
2021/11/11 04:05:37;;;;;;;29.38;20.90;;;2.70;99.90;;;;;;5023406;28;20237;-80
2021/11/11 04:08:04;;;;;;;30.38;25.40;;;2.70;99.90;;;;;;5023334;28;20222;-80
2021/11/11 04:10:32;;;;;;;28.38;25.20;;;2.70;99.90;;;;;;5018000;28;20206;-80
2021/11/11 04:12:59;;;;;;;27.70;23.05;;;2.70;99.90;;;;;;5018771;28;20212;-80
2021/11/11 04:15:26;;;;;;;31.08;22.30;;;2.70;99.90;;;;;;5018006;28;20614;-80
2021/11/11 04:17:53;;;;;;;25.45;19.25;;;2.60;99.90;;;;;;5019128;28;20620;-80
2021/11/11 04:20:21;;;;;;;29.65;20.63;;;2.60;99.90;;;;;;5018440;28;20235;-81
2021/11/11 04:22:48;;;;;;;28.80;20.90;;;2.60;99.90;;;;;;5018357;28;20203;-80
2021/11/11 04:25:19;;;;;;;25.77;20.98;;;2.60;99.90;;;;;;5018012;28;20233;-80
2021/11/11 04:27:50;;;;;;;29.15;21.52;;;2.70;99.90;;;;;;5018014;28;20673;-80
2021/11/11 04:30:24;;;;;;;24.15;21.58;;;2.70;99.90;;;;;;5018005;28;20275;-80
2021/11/11 04:32:51;;;;;;;27.02;24.00;;;2.70;99.90;;;;;;5018242;28;20199;-80
2021/11/11 04:35:18;;;;;;;22.38;19.77;;;2.70;99.90;;;;;;5020090;28;20227;-80
2021/11/11 04:37:55;;;;;;;23.65;19.45;;;2.70;99.90;;;;;;5020737;28;20214;-79
2021/11/11 04:43:35;;;;;;;30.30;24.83;;;2.70;99.90;;;;;;5017746;28;20226;-80
2021/11/11 04:49:13;;;;;;;23.80;21.05;;;2.70;99.90;;;;;;5017688;28;20264;-80
2021/11/11 05:05:30;;;;;;;22.92;19.70;;;2.50;99.90;;;;;;5017407;28;20223;-80
2021/11/11 05:07:57;;;;;;;20.73;18.58;;;2.50;99.90;;;;;;5017378;28;20224;-80
2021/11/11 05:10:25;;;;;;;26.88;19.98;;;2.50;99.90;;;;;;5017263;28;20207;-80
2021/11/11 05:12:52;;;;;;;22.77;19.83;;;2.40;99.90;;;;;;5017286;28;20214;-80
2021/11/11 05:15:19;;;;;;;24.73;20.35;;;2.50;99.90;;;;;;5017228;28;20240;-80
2021/11/11 05:17:46;;;;;;;21.00;18.80;;;2.40;99.90;;;;;;5017179;28;20209;-80
2021/11/11 05:20:13;;;;;;;22.48;19.23;;;2.50;99.90;;;;;;5017882;28;20608;-81
2021/11/11 05:22:41;;;;;;;23.88;18.95;;;2.50;99.90;;;;;;5017063;28;20205;-80
2021/11/11 05:25:08;;;;;;;24.95;21.55;;;2.50;99.90;;;;;;5017207;28;20280;-80
2021/11/11 05:27:36;;;;;;;27.45;21.73;;;2.40;99.90;;;;;;5021276;28;20208;-80
2021/11/11 05:30:04;;;;;;;23.60;19.90;;;2.40;99.90;;;;;;5019394;28;20241;-80
2021/11/11 05:32:33;;;;;;;22.00;19.65;;;2.40;99.90;;;;;;5016160;28;20205;-80
2021/11/11 05:34:59;;;;;;;24.80;22.02;;;2.40;99.90;;;;;;5016816;28;20352;-81
2021/11/11 05:37:26;;;;;;;22.27;19.42;;;2.40;99.90;;;;;;5016283;28;20581;-81
2021/11/11 05:39:53;;;;;;;22.17;18.50;;;2.50;99.90;;;;;;5016359;28;20212;-80
2021/11/11 05:42:20;;;;;;;26.50;18.13;;;2.50;99.90;;;;;;5016359;28;20207;-80
2021/11/11 05:44:48;;;;;;;24.13;19.13;;;2.50;99.90;;;;;;5016072;28;20233;-81
2021/11/11 05:47:15;;;;;;;22.30;19.15;;;2.50;99.90;;;;;;5016405;28;20235;-80
2021/11/11 05:49:42;;;;;;;21.83;19.08;;;2.60;99.90;;;;;;5016620;28;20211;-80
2021/11/11 05:52:10;;;;;;;26.05;18.90;;;2.50;99.90;;;;;;5015755;28;20208;-81
2021/11/11 05:54:38;;;;;;;24.70;19.73;;;2.60;99.90;;;;;;5015389;28;20228;-81
2021/11/11 05:57:05;;;;;;;24.77;17.55;;;2.60;99.90;;;;;;5015064;28;20621;-81
2021/11/11 05:59:32;;;;;;;23.63;19.17;;;2.70;99.90;;;;;;5014957;28;20212;-81
2021/11/11 06:02:01;;;;;;;23.25;20.08;;;2.70;99.90;;;;;;5014955;28;20261;-81
2021/11/11 06:04:28;;;;;;;23.50;19.45;;;2.70;99.90;;;;;;5015099;28;20232;-81
2021/11/11 06:06:54;;;;;;;26.38;19.92;;;2.70;99.90;;;;;;5018556;28;20214;-81
2021/11/11 06:09:21;;;;;;;24.13;18.58;;;2.70;99.90;;;;;;5018377;28;20207;-81
2021/11/11 06:11:48;;;;;;;25.20;19.13;;;2.70;99.90;;;;;;5019136;28;20218;-80
2021/11/11 06:14:15;;;;;;;27.83;23.40;;;2.70;99.90;;;;;;5018833;28;20211;-80
2021/11/11 06:16:42;;;;;;;27.83;19.45;;;2.70;99.90;;;;;;5018832;28;20591;-81
2021/11/11 06:19:10;;;;;;;34.17;22.35;;;2.70;99.90;;;;;;5018934;28;20251;-80
2021/11/11 06:21:38;;;;;;;26.70;20.45;;;2.60;99.90;;;;;;5018553;28;20695;-80
2021/11/11 06:24:06;;;;;;;25.60;22.48;;;2.60;99.90;;;;;;5018432;28;20204;-80
2021/11/11 06:26:32;;;;;;;26.90;20.48;;;2.60;99.90;;;;;;5018523;28;20216;-80
2021/11/11 06:29:00;;;;;;;30.75;22.45;;;2.60;99.90;;;;;;5018627;28;20211;-80
2021/11/11 06:31:27;;;;;;;27.55;20.85;;;2.60;99.90;;;;;;5018509;28;20207;-80
2021/11/11 06:33:54;;;;;;;24.23;20.15;;;2.60;99.90;;;;;;5017589;28;20207;-81
2021/11/11 06:36:22;;;;;;;26.05;21.25;;;2.50;99.90;;;;;;5019350;28;20261;-81
2021/11/11 06:38:49;;;;;;;25.38;22.23;;;2.50;99.90;;;;;;5018879;28;20230;-81
2021/11/11 06:41:18;;;;;;;26.83;22.65;;;2.60;99.90;;;;;;5018699;28;20328;-81
2021/11/11 06:43:45;;;;;;;24.30;21.70;;;2.60;99.90;;;;;;5018313;28;20208;-81
2021/11/11 06:46:15;;;;;;;27.27;22.27;;;2.60;99.90;;;;;;5018402;28;20610;-81
2021/11/11 06:48:42;;;;;;;26.63;19.98;;;2.60;99.90;;;;;;5018303;28;20208;-81
2021/11/11 06:51:10;;;;;;;26.52;21.05;;;2.60;99.90;;;;;;5017738;28;20217;-81
2021/11/11 06:53:39;;;;;;;30.08;22.70;;;2.60;99.90;;;;;;5017684;28;20249;-82
2021/11/11 06:56:06;;;;;;;28.85;21.90;;;2.70;99.90;;;;;;5017672;28;20228;-81
2021/11/11 06:58:32;;;;;;;27.02;21.63;;;2.70;99.90;;;;;;5017567;28;20216;-81
2021/11/11 07:01:01;;;;;;;23.25;20.08;;;2.80;99.90;;;;;;5017257;28;20239;-81
2021/11/11 07:03:29;;;;;;;24.25;21.85;;;2.80;99.90;;;;;;5016888;28;20240;-81
2021/11/11 07:05:56;;;;;;;27.98;23.25;;;2.80;99.90;;;;;;5018744;28;20233;-82
2021/11/11 07:08:23;;;;;;;26.63;21.30;;;2.90;99.90;;;;;;5020740;28;20232;-81
2021/11/11 07:10:53;;;;;;;30.45;22.20;;;2.90;99.90;;;;;;5013549;28;20212;-81
2021/11/11 07:13:21;;;;;;;26.48;22.10;;;2.90;99.90;;;;;;5017107;28;20191;-80
2021/11/11 07:15:48;;;;;;;26.27;22.30;;;2.90;99.90;;;;;;5022605;28;20610;-81
2021/11/11 07:18:16;;;;;;;23.85;21.35;;;3.00;99.90;;;;;;5027063;28;20674;-82
2021/11/11 07:20:44;;;;;;;26.38;20.52;;;3.00;99.90;;;;;;5023389;28;20221;-82
2021/11/11 07:23:12;;;;;;;25.23;22.25;;;3.00;99.90;;;;;;5023793;28;20197;-82
2021/11/11 07:25:39;;;;;;;22.95;20.00;;;3.00;99.90;;;;;;5028910;28;20272;-82
2021/11/11 07:28:07;;;;;;;24.98;21.65;;;3.00;99.90;;;;;;5026041;28;20846;-80
2021/11/11 07:30:34;;;;;;;27.42;21.63;;;3.10;99.90;;;;;;5016229;28;20213;-82
2021/11/11 07:33:02;;;;;;;24.33;21.83;;;3.10;99.90;;;;;;5003144;28;20587;-80
2021/11/11 07:35:29;;;;;;;27.20;23.10;;;3.20;99.90;;;;;;4996899;28;20229;-79
2021/11/11 07:37:56;;;;;;;29.02;24.27;;;3.30;99.90;;;;;;4996786;28;20210;-80
2021/11/11 07:40:25;;;;;;;32.08;24.13;;;3.40;99.90;;;;;;4999777;28;20698;-79
2021/11/11 07:42:52;;;;;;;30.88;23.20;;;3.60;99.90;;;;;;5016293;28;20257;-79
2021/11/11 07:45:25;;;;;;;35.97;22.65;;;3.70;99.90;;;;;;5003654;28;20223;-80
2021/11/11 07:47:53;;;;;;;29.73;20.85;;;3.70;99.90;;;;;;5015342;28;20256;-79
2021/11/11 07:50:21;;;;;;;28.80;23.90;;;3.60;99.90;;;;;;5014241;28;20210;-78
2021/11/11 07:52:48;;;;;;;30.67;22.58;;;3.50;99.90;;;;;;5013755;28;20691;-78
2021/11/11 07:55:15;;;;;;;28.83;23.42;;;3.60;99.90;;;;;;5014601;28;20231;-79
2021/11/11 07:57:42;;;;;;;29.75;22.30;;;3.50;99.90;;;;;;5010932;28;20207;-79
2021/11/11 08:00:12;;;;;;;32.75;24.25;;;3.50;99.90;;;;;;5001629;28;20296;-79
2021/11/11 08:02:42;;;;;;;34.50;25.00;;;3.40;99.90;;;;;;5017784;28;20233;-79
2021/11/11 08:05:10;;;;;;;29.23;23.98;;;3.30;99.90;;;;;;5013591;28;20226;-82
2021/11/11 08:07:37;;;;;;;37.65;28.55;;;3.30;99.90;;;;;;4998091;28;20669;-82
2021/11/11 08:10:04;;;;;;;28.45;24.63;;;3.30;99.90;;;;;;4997000;28;20220;-82
2021/11/11 08:12:31;;;;;;;32.10;23.77;;;3.50;99.90;;;;;;4995806;28;20288;-82
2021/11/11 08:15:00;;;;;;;33.03;26.15;;;3.50;99.90;;;;;;4995883;28;20662;-83
2021/11/11 08:17:27;;;;;;;34.78;26.00;;;3.60;99.90;;;;;;5016025;28;20211;-80
2021/11/11 08:19:56;;;;;;;30.75;25.52;;;3.70;99.90;;;;;;5004194;28;20210;-80
2021/11/11 08:22:25;;;;;;;35.42;25.13;;;3.70;99.90;;;;;;4998574;28;20228;-80
2021/11/11 08:24:52;;;;;;;31.27;23.17;;;3.80;99.90;;;;;;4998248;28;20235;-80
2021/11/11 08:27:19;;;;;;;33.25;23.02;;;3.90;99.90;;;;;;4999095;28;20212;-79
2021/11/11 08:29:47;;;;;;;32.42;25.13;;;4.00;99.90;;;;;;5005927;28;20208;-79
2021/11/11 08:32:15;;;;;;;33.75;24.25;;;4.00;99.90;;;;;;5007369;28;20620;-79
2021/11/11 08:34:44;;;;;;;33.97;26.23;;;4.10;99.90;;;;;;5005935;28;20260;-79
2021/11/11 08:37:13;;;;;;;31.40;25.10;;;4.10;99.90;;;;;;5007925;28;20215;-79
2021/11/11 08:39:41;;;;;;;30.35;24.27;;;4.20;99.90;;;;;;5005181;28;20207;-79
2021/11/11 08:42:09;;;;;;;30.88;22.35;;;4.40;99.90;;;;;;5006127;28;20289;-79
2021/11/11 08:44:37;;;;;;;31.10;24.13;;;4.60;99.90;;;;;;5007198;28;20245;-79
2021/11/11 08:47:04;;;;;;;29.90;24.00;;;4.60;99.90;;;;;;5003199;28;20210;-80
2021/11/11 08:49:31;;;;;;;28.02;22.10;;;4.80;99.90;;;;;;4998984;28;20212;-79
2021/11/11 08:51:58;;;;;;;26.33;20.60;;;4.90;99.90;;;;;;4998211;28;20208;-79
2021/11/11 08:54:27;;;;;;;28.30;21.52;;;4.90;99.90;;;;;;5007023;28;20240;-79
2021/11/11 08:56:55;;;;;;;31.40;24.27;;;5.00;99.90;;;;;;5007858;28;20207;-79
2021/11/11 08:59:24;;;;;;;29.45;20.75;;;5.10;99.90;;;;;;5001616;28;20215;-79
2021/11/11 09:01:53;;;;;;;25.98;23.00;;;5.20;99.90;;;;;;4997944;28;20223;-80
2021/11/11 09:04:21;;;;;;;24.77;20.13;;;5.30;99.90;;;;;;4997843;28;20260;-79
2021/11/11 09:06:48;;;;;;;25.88;20.73;;;5.50;99.90;;;;;;4997818;28;20298;-79
2021/11/11 09:09:16;;;;;;;25.13;20.45;;;5.50;99.90;;;;;;4997994;28;20218;-80
2021/11/11 09:11:44;;;;;;;23.02;19.05;;;5.60;99.90;;;;;;4998296;28;20689;-79
2021/11/11 09:14:11;;;;;;;27.83;19.80;;;5.70;99.90;;;;;;4997347;28;20223;-79
2021/11/11 09:16:38;;;;;;;22.23;19.90;;;5.70;99.90;;;;;;4998357;28;20293;-80
2021/11/11 09:19:06;;;;;;;22.80;19.00;;;5.80;99.90;;;;;;4996812;28;20849;-79
2021/11/11 09:21:33;;;;;;;28.83;22.30;;;5.90;99.90;;;;;;4996763;28;20238;-79
2021/11/11 09:24:00;;;;;;;23.45;19.90;;;5.90;99.90;;;;;;4997135;28;20294;-79
2021/11/11 09:26:27;;;;;;;23.20;19.33;;;6.00;99.90;;;;;;4997175;28;20228;-80
2021/11/11 09:28:56;;;;;;;23.00;19.77;;;6.30;99.90;;;;;;4997202;28;20235;-79
2021/11/11 09:31:24;;;;;;;21.25;19.00;;;6.40;99.90;;;;;;4997519;28;20203;-80
2021/11/11 09:33:51;;;;;;;21.95;19.48;;;6.60;99.90;;;;;;5000066;28;20250;-80
2021/11/11 09:36:20;;;;;;;24.00;19.77;;;6.70;99.90;;;;;;5002228;28;20239;-79
2021/11/11 09:38:48;;;;;;;21.13;18.55;;;6.80;99.90;;;;;;5004124;28;20290;-79
2021/11/11 09:41:16;;;;;;;21.45;19.58;;;6.90;99.90;;;;;;5004174;28;20217;-79
2021/11/11 09:43:44;;;;;;;21.05;18.50;;;7.10;99.90;;;;;;5004449;28;20290;-79
2021/11/11 09:46:15;;;;;;;27.50;22.45;;;7.20;99.90;;;;;;5005612;28;20228;-80
2021/11/11 09:48:42;;;;;;;21.23;18.80;;;7.00;99.90;;;;;;5003039;28;20725;-80
2021/11/11 09:51:13;;;;;;;22.83;19.02;;;7.10;99.90;;;;;;5001374;28;20211;-80
2021/11/11 09:53:50;;;;;;;25.70;18.77;;;7.20;99.90;;;;;;5000535;28;20208;-80
2021/11/11 09:59:02;;;;;;;23.20;18.90;;;7.30;99.90;;;;;;5000078;28;20226;-79
2021/11/11 10:01:30;;;;;;;23.52;19.95;;;7.50;99.90;;;;;;5001830;28;20311;-80
2021/11/11 10:03:57;;;;;;;26.20;22.13;;;7.60;99.90;;;;;;5000161;28;20677;-80
2021/11/11 10:06:27;;;;;;;25.63;22.00;;;7.60;99.90;;;;;;4999674;28;20231;-79
2021/11/11 10:08:55;;;;;;;22.40;20.00;;;7.80;99.90;;;;;;5000626;28;20671;-80
2021/11/11 10:11:32;;;;;;;21.48;18.23;;;8.10;99.90;;;;;;5000048;28;20606;-80
2021/11/11 10:14:00;;;;;;;21.88;18.08;;;8.30;99.90;;;;;;5000484;28;20214;-80
2021/11/11 10:16:28;;;;;;;23.35;18.55;;;8.60;99.90;;;;;;5000326;28;20620;-80
2021/11/11 10:18:57;;;;;;;22.45;18.13;;;8.90;99.90;;;;;;5000362;28;20212;-80
2021/11/11 10:21:30;;;;;;;22.95;20.58;;;9.00;99.90;;;;;;4999911;28;20208;-80
2021/11/11 10:24:11;;;;;;;20.17;17.77;;;9.10;99.90;;;;;;4999508;28;20675;-80
2021/11/11 10:26:41;;;;;;;25.95;19.73;;;9.00;99.90;;;;;;5001561;28;20236;-80
2021/11/11 10:29:19;;;;;;;22.40;18.63;;;8.90;99.90;;;;;;5000301;28;20212;-80
2021/11/11 10:31:51;;;;;;;20.85;18.67;;;8.50;99.90;;;;;;4999726;28;20219;-80
2021/11/11 10:34:19;;;;;;;23.15;20.55;;;8.70;99.90;;;;;;5000577;28;20211;-80
2021/11/11 10:36:48;;;;;;;24.50;19.30;;;9.20;99.90;;;;;;5000170;28;20213;-80
2021/11/11 10:39:17;;;;;;;21.13;18.83;;;9.90;99.90;;;;;;5000106;28;20212;-80
2021/11/11 10:41:44;;;;;;;20.77;18.05;;;10.60;99.90;;;;;;4999128;28;20226;-80
2021/11/11 10:44:25;;;;;;;19.73;17.93;;;11.20;99.90;;;;;;4999690;28;20213;-80
2021/11/11 10:46:54;;;;;;;19.30;17.30;;;12.00;99.90;;;;;;4999602;28;20464;-80
2021/11/11 10:49:30;;;;;;;18.90;16.97;;;12.50;99.60;;;;;;5000156;28;20977;-80
2021/11/11 10:52:13;;;;;;;19.87;17.87;;;13.10;98.90;;;;;;4999877;28;20457;-80
2021/11/11 10:54:57;;;;;;;20.00;16.97;;;13.90;97.20;;;;;;4999459;28;20466;-80
2021/11/11 10:57:32;;;;;;;17.63;15.90;;;14.60;95.20;;;;;;4999688;28;20468;-80
2021/11/11 11:00:13;;;;;;;20.07;18.00;;;15.10;94.70;;;;;;4999834;28;20462;-80
2021/11/11 11:02:51;;;;;;;19.90;17.80;;;15.80;93.20;;;;;;5000332;28;21163;-80
2021/11/11 11:05:20;;;;;;;18.03;16.33;;;16.50;91.40;;;;;;5000153;28;20471;-80
2021/11/11 11:07:47;;;;;;;19.17;17.30;;;17.00;90.80;;;;;;5000149;28;20495;-80
2021/11/11 11:10:17;;;;;;;20.90;19.00;;;17.30;87.80;;;;;;5000958;28;20459;-80
2021/11/11 11:12:45;;;;;;;19.70;17.83;;;16.80;85.20;;;;;;4999678;28;20449;-80
2021/11/11 11:15:56;;;;;;;18.80;16.90;;;16.20;86.70;;;;;;5019676;23;20556;-79
2021/11/11 11:18:26;;;;;;;21.90;19.60;;;15.90;88.10;;;;;;5021255;28;20454;-81
2021/11/11 11:21:02;;;;;;;20.20;18.30;;;15.90;88.90;;;;;;5021375;28;20450;-81
2021/11/11 11:23:33;;;;;;;19.57;17.77;;;16.10;88.70;;;;;;5019875;28;20500;-81
2021/11/11 11:26:05;;;;;;;23.77;21.67;;;16.30;89.80;;;;;;5020759;28;20466;-81
2021/11/11 11:28:40;;;;;;;21.37;19.40;;;16.80;88.50;;;;;;5020011;28;20455;-82
2021/11/11 11:31:08;;;;;;;23.97;21.53;;;17.30;87.50;;;;;;5021013;28;20458;-82
2021/11/11 11:33:43;;;;;;;22.17;19.87;;;18.10;85.80;;;;;;5020221;28;20456;-81
2021/11/11 11:36:13;;;;;;;22.87;20.40;;;19.00;83.40;;;;;;5020850;28;21009;-82
2021/11/11 11:38:50;;;;;;;22.23;20.07;;;19.70;81.70;;;;;;5020955;28;20446;-82
2021/11/11 11:41:28;;;;;;;22.07;20.07;;;20.40;78.10;;;;;;5020682;28;20465;-82
2021/11/11 11:43:56;;;;;;;22.80;20.40;;;20.90;75.50;;;;;;5020200;28;20496;-82
2021/11/11 11:46:25;;;;;;;24.67;22.23;;;20.90;72.90;;;;;;5020347;28;20540;-82
2021/11/11 11:48:52;;;;;;;25.40;22.90;;;20.60;71.70;;;;;;5021054;28;20446;-82
2021/11/11 11:51:24;;;;;;;24.43;22.13;;;20.60;71.70;;;;;;5020613;28;20544;-82
2021/11/11 11:54:00;;;;;;;24.03;21.80;;;20.80;73.20;;;;;;5020564;28;20450;-82
2021/11/11 11:56:29;;;;;;;23.00;20.70;;;21.30;71.00;;;;;;5020389;28;20481;-81
2021/11/11 11:59:00;;;;;;;23.70;21.53;;;21.40;68.20;;;;;;5020261;28;20462;-82
2021/11/11 12:04:23;;;;;;;23.37;21.00;;;21.10;69.80;;;;;;5013409;28;20500;-81
2021/11/11 12:07:03;;;;;;;23.50;21.13;;;21.70;68.60;;;;;;5019944;28;20465;-82
2021/11/11 12:09:36;;;;;;;22.63;20.50;;;21.80;67.90;;;;;;5020715;28;20497;-81
2021/11/11 12:15:10;;;;;;;23.60;21.40;;;21.50;64.50;;;;;;5019674;28;20442;-82
2021/11/11 12:17:50;;;;;;;24.67;22.37;;;20.40;66.10;;;;;;5019819;28;20813;-82
2021/11/11 12:29:29;;;;;;;21.10;19.20;;;20.40;67.80;;;;;;5020363;28;20438;-82
2021/11/11 12:40:37;;;;;;;25.10;22.60;;;19.70;68.00;;;;;;4959059;29;20433;-82
2021/11/11 12:43:15;;;;;;;23.00;20.70;;;19.50;68.60;;;;;;5004892;28;20524;-82
2021/11/11 12:45:42;;;;;;;23.17;20.97;;;19.60;68.70;;;;;;5019047;28;20489;-82
2021/11/11 12:48:20;;;;;;;21.47;19.47;;;19.50;68.80;;;;;;5019885;28;20449;-80
2021/11/11 12:50:49;;;;;;;21.67;19.77;;;19.80;69.10;;;;;;5019437;28;20552;-80
2021/11/11 12:53:38;;;;;;;21.77;19.70;;;20.30;67.80;;;;;;5018756;28;20456;-80
2021/11/11 12:56:18;;;;;;;20.30;18.50;;;20.10;66.50;;;;;;5019794;28;20480;-80
2021/11/11 12:58:48;;;;;;;25.37;22.67;;;20.10;66.40;;;;;;5019454;28;20453;-80
2021/11/11 13:01:17;;;;;;;23.23;20.83;;;19.70;66.10;;;;;;5019307;28;20452;-80
2021/11/11 13:03:48;;;;;;;25.43;21.80;;;19.40;67.30;;;;;;5018444;28;20489;-81
2021/11/11 13:06:32;;;;;;;24.63;22.00;;;19.50;67.70;;;;;;5027915;28;20473;-80
2021/11/11 13:09:07;;;;;;;23.87;21.53;;;19.50;67.10;;;;;;5034706;28;20454;-80
2021/11/11 13:11:37;;;;;;;23.73;21.30;;;19.10;67.50;;;;;;5035174;28;20457;-80
2021/11/11 13:14:08;;;;;;;23.60;21.23;;;18.90;67.70;;;;;;5024678;28;20452;-82
2021/11/11 13:16:35;;;;;;;24.27;21.70;;;18.70;68.50;;;;;;5018701;28;20523;-81
2021/11/11 13:19:04;;;;;;;24.00;21.83;;;18.90;69.10;;;;;;5019608;28;20553;-81
2021/11/11 13:21:39;;;;;;;23.87;21.47;;;18.90;69.40;;;;;;5018746;28;20530;-82
2021/11/11 13:24:39;;;;;;;23.63;21.00;;;18.80;69.30;;;;;;5018917;28;20481;-82
2021/11/11 16:00:35;;;;;;;40.13;28.27;;;7.10;99.90;;;;;;4938208;28;20583;-82
2021/11/11 16:36:40;;;;;;;40.45;32.05;;;5.80;99.90;;;;;;4934564;29;20233;-84
2021/11/11 16:39:10;;;;;;;51.35;35.97;;;5.70;99.90;;;;;;4986088;28;20681;-82